sensor_id;sensor_type;location;lat;lon;timestamp;temperature;humidity
22069;DHT22;13887;57.196;-2.100;2023-04-01T00:01:28;7.28;82.33
22069;DHT22;13887;57.196;-2.100;2023-04-01T00:03:55;7.27;82.14
22069;DHT22;13887;57.196;-2.100;2023-04-01T00:06:23;7.31;81.90
22069;DHT22;13887;57.196;-2.100;2023-04-01T00:08:50;7.24;81.71
22069;DHT22;13887;57.196;-2.100;2023-04-01T00:11:17;7.26;81.46
22069;DHT22;13887;57.196;-2.100;2023-04-01T00:13:47;7.27;81.52
22069;DHT22;13887;57.196;-2.100;2023-04-01T00:16:14;7.26;81.50
22069;DHT22;13887;57.196;-2.100;2023-04-01T00:18:49;7.28;81.46
22069;DHT22;13887;57.196;-2.100;2023-04-01T00:21:17;7.29;81.53
22069;DHT22;13887;57.196;-2.100;2023-04-01T00:23:44;7.27;81.65
22069;DHT22;13887;57.196;-2.100;2023-04-01T00:26:11;7.25;81.71
22069;DHT22;13887;57.196;-2.100;2023-04-01T00:28:39;7.27;81.59
22069;DHT22;13887;57.196;-2.100;2023-04-01T00:31:08;7.29;81.62
22069;DHT22;13887;57.196;-2.100;2023-04-01T00:33:36;7.29;81.68
22069;DHT22;13887;57.196;-2.100;2023-04-01T00:36:13;7.29;81.60
22069;DHT22;13887;57.196;-2.100;2023-04-01T00:38:41;7.27;81.35
22069;DHT22;13887;57.196;-2.100;2023-04-01T00:41:11;7.27;81.32
22069;DHT22;13887;57.196;-2.100;2023-04-01T00:43:44;7.26;81.36
22069;DHT22;13887;57.196;-2.100;2023-04-01T00:46:11;7.27;81.51
22069;DHT22;13887;57.196;-2.100;2023-04-01T00:49:14;7.25;81.66
22069;DHT22;13887;57.196;-2.100;2023-04-01T00:51:34;7.29;81.54
22069;DHT22;13887;57.196;-2.100;2023-04-01T00:54:02;7.30;81.47
22069;DHT22;13887;57.196;-2.100;2023-04-01T00:56:34;7.28;81.44
22069;DHT22;13887;57.196;-2.100;2023-04-01T00:59:06;7.24;81.62
22069;DHT22;13887;57.196;-2.100;2023-04-01T01:01:35;7.27;81.62
22069;DHT22;13887;57.196;-2.100;2023-04-01T01:04:03;7.19;82.20
22069;DHT22;13887;57.196;-2.100;2023-04-01T01:12:19;7.26;81.99
22069;DHT22;13887;57.196;-2.100;2023-04-01T01:17:41;7.28;81.96
22069;DHT22;13887;57.196;-2.100;2023-04-01T01:36:38;7.22;82.11
22069;DHT22;13887;57.196;-2.100;2023-04-01T01:39:09;7.26;82.00
22069;DHT22;13887;57.196;-2.100;2023-04-01T01:41:39;7.23;82.26
22069;DHT22;13887;57.196;-2.100;2023-04-01T01:44:08;7.18;82.52
22069;DHT22;13887;57.196;-2.100;2023-04-01T01:46:38;7.15;82.62
22069;DHT22;13887;57.196;-2.100;2023-04-01T01:49:07;7.18;82.32
22069;DHT22;13887;57.196;-2.100;2023-04-01T01:51:34;7.23;82.14
22069;DHT22;13887;57.196;-2.100;2023-04-01T01:54:03;7.23;82.13
22069;DHT22;13887;57.196;-2.100;2023-04-01T01:56:32;7.19;82.26
22069;DHT22;13887;57.196;-2.100;2023-04-01T01:59:07;7.20;82.29
22069;DHT22;13887;57.196;-2.100;2023-04-01T02:01:39;7.22;82.29
22069;DHT22;13887;57.196;-2.100;2023-04-01T02:04:13;7.20;82.34
22069;DHT22;13887;57.196;-2.100;2023-04-01T02:06:46;7.18;82.54
22069;DHT22;13887;57.196;-2.100;2023-04-01T02:09:15;7.17;82.28
22069;DHT22;13887;57.196;-2.100;2023-04-01T02:11:59;7.18;82.38
22069;DHT22;13887;57.196;-2.100;2023-04-01T02:17:06;7.17;82.17
22069;DHT22;13887;57.196;-2.100;2023-04-01T02:20:08;7.18;81.91
22069;DHT22;13887;57.196;-2.100;2023-04-01T02:22:36;7.19;82.01
22069;DHT22;13887;57.196;-2.100;2023-04-01T02:25:09;7.17;82.04
22069;DHT22;13887;57.196;-2.100;2023-04-01T02:27:37;7.17;82.04
22069;DHT22;13887;57.196;-2.100;2023-04-01T02:30:05;7.18;81.93
22069;DHT22;13887;57.196;-2.100;2023-04-01T02:32:34;7.19;81.81
22069;DHT22;13887;57.196;-2.100;2023-04-01T02:35:02;7.15;82.12
22069;DHT22;13887;57.196;-2.100;2023-04-01T02:37:32;7.16;81.87
22069;DHT22;13887;57.196;-2.100;2023-04-01T02:40:04;7.20;81.71
22069;DHT22;13887;57.196;-2.100;2023-04-01T02:42:34;7.19;81.72
22069;DHT22;13887;57.196;-2.100;2023-04-01T02:45:01;7.18;81.68
22069;DHT22;13887;57.196;-2.100;2023-04-01T02:47:29;7.16;81.55
22069;DHT22;13887;57.196;-2.100;2023-04-01T02:49:56;7.16;81.72
22069;DHT22;13887;57.196;-2.100;2023-04-01T02:52:25;7.16;81.71
22069;DHT22;13887;57.196;-2.100;2023-04-01T02:54:52;7.15;81.72
22069;DHT22;13887;57.196;-2.100;2023-04-01T02:57:20;7.15;81.62
22069;DHT22;13887;57.196;-2.100;2023-04-01T02:59:47;7.16;81.32
22069;DHT22;13887;57.196;-2.100;2023-04-01T03:02:14;7.10;81.43
22069;DHT22;13887;57.196;-2.100;2023-04-01T03:04:42;7.12;81.39
22069;DHT22;13887;57.196;-2.100;2023-04-01T03:07:09;7.11;81.43
22069;DHT22;13887;57.196;-2.100;2023-04-01T03:09:39;7.14;81.38
22069;DHT22;13887;57.196;-2.100;2023-04-01T03:12:06;7.14;81.24
22069;DHT22;13887;57.196;-2.100;2023-04-01T03:14:43;7.14;81.12
22069;DHT22;13887;57.196;-2.100;2023-04-01T03:17:11;7.13;81.20
22069;DHT22;13887;57.196;-2.100;2023-04-01T03:19:37;7.14;81.24
22069;DHT22;13887;57.196;-2.100;2023-04-01T03:22:10;7.14;81.13
22069;DHT22;13887;57.196;-2.100;2023-04-01T03:24:38;7.14;80.98
22069;DHT22;13887;57.196;-2.100;2023-04-01T03:27:04;7.14;80.91
22069;DHT22;13887;57.196;-2.100;2023-04-01T03:29:32;7.13;80.84
22069;DHT22;13887;57.196;-2.100;2023-04-01T03:31:59;7.13;80.87
22069;DHT22;13887;57.196;-2.100;2023-04-01T03:34:26;7.12;80.91
22069;DHT22;13887;57.196;-2.100;2023-04-01T03:36:53;7.11;80.79
22069;DHT22;13887;57.196;-2.100;2023-04-01T03:39:20;7.10;80.89
22069;DHT22;13887;57.196;-2.100;2023-04-01T03:41:48;7.13;81.01
22069;DHT22;13887;57.196;-2.100;2023-04-01T03:44:15;7.12;81.15
22069;DHT22;13887;57.196;-2.100;2023-04-01T03:46:44;7.09;81.11
22069;DHT22;13887;57.196;-2.100;2023-04-01T03:49:11;7.10;81.09
22069;DHT22;13887;57.196;-2.100;2023-04-01T03:51:39;7.09;81.16
22069;DHT22;13887;57.196;-2.100;2023-04-01T03:54:08;7.11;80.99
22069;DHT22;13887;57.196;-2.100;2023-04-01T03:56:35;7.08;81.03
22069;DHT22;13887;57.196;-2.100;2023-04-01T03:59:04;7.11;81.07
22069;DHT22;13887;57.196;-2.100;2023-04-01T04:01:32;7.09;81.09
22069;DHT22;13887;57.196;-2.100;2023-04-01T04:03:59;7.11;81.03
22069;DHT22;13887;57.196;-2.100;2023-04-01T04:06:27;7.13;81.01
22069;DHT22;13887;57.196;-2.100;2023-04-01T04:08:54;7.14;80.91
22069;DHT22;13887;57.196;-2.100;2023-04-01T04:11:22;7.11;80.96
22069;DHT22;13887;57.196;-2.100;2023-04-01T04:13:51;7.07;80.98
22069;DHT22;13887;57.196;-2.100;2023-04-01T04:16:20;7.08;80.74
22069;DHT22;13887;57.196;-2.100;2023-04-01T04:18:53;7.09;80.71
22069;DHT22;13887;57.196;-2.100;2023-04-01T04:21:20;7.11;80.84
22069;DHT22;13887;57.196;-2.100;2023-04-01T04:23:47;7.11;80.82
22069;DHT22;13887;57.196;-2.100;2023-04-01T04:26:17;7.12;80.65
22069;DHT22;13887;57.196;-2.100;2023-04-01T04:28:53;7.09;80.50
22069;DHT22;13887;57.196;-2.100;2023-04-01T04:31:22;7.05;79.82
22069;DHT22;13887;57.196;-2.100;2023-04-01T04:33:51;7.02;79.67
22069;DHT22;13887;57.196;-2.100;2023-04-01T04:36:19;7.02;79.62
22069;DHT22;13887;57.196;-2.100;2023-04-01T04:38:48;6.99;79.40
22069;DHT22;13887;57.196;-2.100;2023-04-01T04:41:17;7.03;79.01
22069;DHT22;13887;57.196;-2.100;2023-04-01T04:43:54;7.01;79.11
22069;DHT22;13887;57.196;-2.100;2023-04-01T04:46:23;7.03;78.88
22069;DHT22;13887;57.196;-2.100;2023-04-01T04:48:56;7.02;78.88
22069;DHT22;13887;57.196;-2.100;2023-04-01T04:51:23;7.01;78.81
22069;DHT22;13887;57.196;-2.100;2023-04-01T04:53:51;6.98;78.85
22069;DHT22;13887;57.196;-2.100;2023-04-01T04:56:25;7.02;78.72
22069;DHT22;13887;57.196;-2.100;2023-04-01T04:59:03;7.01;78.81
22069;DHT22;13887;57.196;-2.100;2023-04-01T05:01:40;6.98;78.76
22069;DHT22;13887;57.196;-2.100;2023-04-01T05:04:07;6.99;78.75
22069;DHT22;13887;57.196;-2.100;2023-04-01T05:06:34;6.98;78.92
22069;DHT22;13887;57.196;-2.100;2023-04-01T05:09:02;6.99;78.86
22069;DHT22;13887;57.196;-2.100;2023-04-01T05:11:29;6.96;79.02
22069;DHT22;13887;57.196;-2.100;2023-04-01T05:13:56;6.97;78.78
22069;DHT22;13887;57.196;-2.100;2023-04-01T05:16:23;6.96;78.38
22069;DHT22;13887;57.196;-2.100;2023-04-01T05:18:50;6.94;78.14
22069;DHT22;13887;57.196;-2.100;2023-04-01T05:21:18;6.96;78.24
22069;DHT22;13887;57.196;-2.100;2023-04-01T05:23:45;6.95;78.30
22069;DHT22;13887;57.196;-2.100;2023-04-01T05:26:14;6.94;77.94
22069;DHT22;13887;57.196;-2.100;2023-04-01T05:28:41;6.90;77.97
22069;DHT22;13887;57.196;-2.100;2023-04-01T05:31:09;6.90;77.72
22069;DHT22;13887;57.196;-2.100;2023-04-01T05:33:42;6.88;77.81
22069;DHT22;13887;57.196;-2.100;2023-04-01T05:36:14;6.90;77.64
22069;DHT22;13887;57.196;-2.100;2023-04-01T05:38:43;6.90;77.63
22069;DHT22;13887;57.196;-2.100;2023-04-01T05:41:13;6.91;77.82
22069;DHT22;13887;57.196;-2.100;2023-04-01T05:43:44;6.94;77.80
22069;DHT22;13887;57.196;-2.100;2023-04-01T05:46:33;6.93;77.73
22069;DHT22;13887;57.196;-2.100;2023-04-01T05:49:19;6.89;78.01
22069;DHT22;13887;57.196;-2.100;2023-04-01T05:51:47;6.89;78.06
22069;DHT22;13887;57.196;-2.100;2023-04-01T05:54:14;6.90;78.08
22069;DHT22;13887;57.196;-2.100;2023-04-01T05:56:43;6.88;77.76
22069;DHT22;13887;57.196;-2.100;2023-04-01T05:59:12;6.88;77.66
22069;DHT22;13887;57.196;-2.100;2023-04-01T06:01:40;6.89;77.50
22069;DHT22;13887;57.196;-2.100;2023-04-01T06:04:14;6.90;77.40
22069;DHT22;13887;57.196;-2.100;2023-04-01T06:06:42;6.84;77.53
22069;DHT22;13887;57.196;-2.100;2023-04-01T06:09:21;6.87;77.36
22069;DHT22;13887;57.196;-2.100;2023-04-01T06:15:03;6.87;76.92
22069;DHT22;13887;57.196;-2.100;2023-04-01T06:28:54;6.83;76.43
22069;DHT22;13887;57.196;-2.100;2023-04-01T06:40:26;6.85;76.66
22069;DHT22;13887;57.196;-2.100;2023-04-01T06:52:06;6.83;76.93
22069;DHT22;13887;57.196;-2.100;2023-04-01T06:55:20;6.85;76.89
22069;DHT22;13887;57.196;-2.100;2023-04-01T06:58:49;6.85;76.94
22069;DHT22;13887;57.196;-2.100;2023-04-01T07:01:25;6.81;77.20
22069;DHT22;13887;57.196;-2.100;2023-04-01T07:03:57;6.84;77.22
22069;DHT22;13887;57.196;-2.100;2023-04-01T07:06:42;6.82;76.67
22069;DHT22;13887;57.196;-2.100;2023-04-01T07:09:14;6.82;76.45
22069;DHT22;13887;57.196;-2.100;2023-04-01T07:12:12;6.82;76.05
22069;DHT22;13887;57.196;-2.100;2023-04-01T07:15:25;6.84;75.92
22069;DHT22;13887;57.196;-2.100;2023-04-01T07:17:56;6.83;76.08
22069;DHT22;13887;57.196;-2.100;2023-04-01T07:20:29;6.82;75.93
22069;DHT22;13887;57.196;-2.100;2023-04-01T07:23:04;6.83;75.96
22069;DHT22;13887;57.196;-2.100;2023-04-01T07:25:59;6.81;75.65
22069;DHT22;13887;57.196;-2.100;2023-04-01T07:28:32;6.83;75.65
22069;DHT22;13887;57.196;-2.100;2023-04-01T08:03:33;6.85;76.29
22069;DHT22;13887;57.196;-2.100;2023-04-01T08:20:53;6.83;76.19
22069;DHT22;13887;57.196;-2.100;2023-04-01T08:23:36;6.81;76.38
22069;DHT22;13887;57.196;-2.100;2023-04-01T08:26:10;6.85;76.56
22069;DHT22;13887;57.196;-2.100;2023-04-01T08:28:44;6.88;76.75
22069;DHT22;13887;57.196;-2.100;2023-04-01T08:31:26;6.88;77.29
22069;DHT22;13887;57.196;-2.100;2023-04-01T08:33:56;6.87;77.33
22069;DHT22;13887;57.196;-2.100;2023-04-01T08:36:25;6.90;77.34
22069;DHT22;13887;57.196;-2.100;2023-04-01T08:39:34;6.87;77.41
22069;DHT22;13887;57.196;-2.100;2023-04-01T08:45:23;6.91;77.68
22069;DHT22;13887;57.196;-2.100;2023-04-01T08:48:22;6.89;77.76
22069;DHT22;13887;57.196;-2.100;2023-04-01T08:53:49;6.88;78.08
22069;DHT22;13887;57.196;-2.100;2023-04-01T08:57:07;6.87;78.47
22069;DHT22;13887;57.196;-2.100;2023-04-01T09:02:05;6.88;78.18
22069;DHT22;13887;57.196;-2.100;2023-04-01T09:07:43;6.86;77.87
22069;DHT22;13887;57.196;-2.100;2023-04-01T09:16:24;6.83;78.14
22069;DHT22;13887;57.196;-2.100;2023-04-01T09:25:15;6.82;78.03
22069;DHT22;13887;57.196;-2.100;2023-04-01T09:27:37;6.79;77.92
22069;DHT22;13887;57.196;-2.100;2023-04-01T09:35:42;6.85;77.89
22069;DHT22;13887;57.196;-2.100;2023-04-01T09:38:22;6.84;78.11
22069;DHT22;13887;57.196;-2.100;2023-04-01T09:40:57;6.83;77.47
22069;DHT22;13887;57.196;-2.100;2023-04-01T09:46:58;6.83;77.65
22069;DHT22;13887;57.196;-2.100;2023-04-01T09:49:35;6.85;77.24
22069;DHT22;13887;57.196;-2.100;2023-04-01T09:52:14;6.85;77.18
22069;DHT22;13887;57.196;-2.100;2023-04-01T10:00:39;6.84;76.59
22069;DHT22;13887;57.196;-2.100;2023-04-01T10:14:11;6.84;76.59
22069;DHT22;13887;57.196;-2.100;2023-04-01T10:37:08;6.75;76.50
22069;DHT22;13887;57.196;-2.100;2023-04-01T10:48:49;6.76;76.87
22069;DHT22;13887;57.196;-2.100;2023-04-01T11:17:24;6.84;78.22
22069;DHT22;13887;57.196;-2.100;2023-04-01T11:29:18;6.94;78.31
22069;DHT22;13887;57.196;-2.100;2023-04-01T11:34:48;6.94;78.31
22069;DHT22;13887;57.196;-2.100;2023-04-01T11:43:21;6.91;78.05
22069;DHT22;13887;57.196;-2.100;2023-04-01T12:04:05;7.03;77.63
22069;DHT22;13887;57.196;-2.100;2023-04-01T12:07:02;7.07;77.73
22069;DHT22;13887;57.196;-2.100;2023-04-01T12:45:33;7.09;77.24
22069;DHT22;13887;57.196;-2.100;2023-04-01T12:52:00;7.05;77.81
22069;DHT22;13887;57.196;-2.100;2023-04-01T13:03:10;7.08;77.87
22069;DHT22;13887;57.196;-2.100;2023-04-01T13:11:09;7.08;77.85
22069;DHT22;13887;57.196;-2.100;2023-04-01T13:16:29;7.05;77.92
22069;DHT22;13887;57.196;-2.100;2023-04-01T13:21:43;7.04;77.79
22069;DHT22;13887;57.196;-2.100;2023-04-01T13:24:34;7.03;77.98
22069;DHT22;13887;57.196;-2.100;2023-04-01T13:27:18;7.02;78.01
22069;DHT22;13887;57.196;-2.100;2023-04-01T13:35:26;7.08;77.97
22069;DHT22;13887;57.196;-2.100;2023-04-01T13:43:45;7.10;78.30
22069;DHT22;13887;57.196;-2.100;2023-04-01T14:00:25;7.10;78.23
22069;DHT22;13887;57.196;-2.100;2023-04-01T14:14:41;7.11;77.67
22069;DHT22;13887;57.196;-2.100;2023-04-01T14:17:40;7.12;77.56
22069;DHT22;13887;57.196;-2.100;2023-04-01T14:26:32;7.17;77.37
22069;DHT22;13887;57.196;-2.100;2023-04-01T14:42:45;7.17;77.13
22069;DHT22;13887;57.196;-2.100;2023-04-01T14:48:21;7.18;77.35
22069;DHT22;13887;57.196;-2.100;2023-04-01T14:50:54;7.22;77.63
22069;DHT22;13887;57.196;-2.100;2023-04-01T14:56:01;7.19;77.53
22069;DHT22;13887;57.196;-2.100;2023-04-01T14:58:57;7.18;77.47
22069;DHT22;13887;57.196;-2.100;2023-04-01T15:15:27;7.20;77.80
22069;DHT22;13887;57.196;-2.100;2023-04-01T15:18:17;7.20;77.89
22069;DHT22;13887;57.196;-2.100;2023-04-01T15:23:38;7.20;78.08
22069;DHT22;13887;57.196;-2.100;2023-04-01T15:26:17;7.22;78.16
22069;DHT22;13887;57.196;-2.100;2023-04-01T15:39:13;7.20;78.01
22069;DHT22;13887;57.196;-2.100;2023-04-01T15:50:51;7.22;78.43
22069;DHT22;13887;57.196;-2.100;2023-04-01T15:53:35;7.20;78.14
22069;DHT22;13887;57.196;-2.100;2023-04-01T15:56:19;7.20;78.28
22069;DHT22;13887;57.196;-2.100;2023-04-01T15:59:14;7.17;78.26
22069;DHT22;13887;57.196;-2.100;2023-04-01T16:01:59;7.19;78.18
22069;DHT22;13887;57.196;-2.100;2023-04-01T16:05:05;7.20;78.19
22069;DHT22;13887;57.196;-2.100;2023-04-01T16:16:17;7.22;78.14
22069;DHT22;13887;57.196;-2.100;2023-04-01T16:19:17;7.22;78.09
22069;DHT22;13887;57.196;-2.100;2023-04-01T16:22:05;7.22;78.20
22069;DHT22;13887;57.196;-2.100;2023-04-01T16:27:36;7.24;78.18
22069;DHT22;13887;57.196;-2.100;2023-04-01T16:30:36;7.25;78.29
22069;DHT22;13887;57.196;-2.100;2023-04-01T16:39:16;7.20;78.20
22069;DHT22;13887;57.196;-2.100;2023-04-01T16:41:18;7.22;78.40
22069;DHT22;13887;57.196;-2.100;2023-04-01T16:43:50;7.23;78.43
22069;DHT22;13887;57.196;-2.100;2023-04-01T16:49:22;7.20;78.79
22069;DHT22;13887;57.196;-2.100;2023-04-01T17:00:36;7.23;79.06
22069;DHT22;13887;57.196;-2.100;2023-04-01T17:02:45;7.25;79.02
22069;DHT22;13887;57.196;-2.100;2023-04-01T17:05:14;7.27;79.03
22069;DHT22;13887;57.196;-2.100;2023-04-01T17:16:06;7.30;79.06
22069;DHT22;13887;57.196;-2.100;2023-04-01T17:35:35;7.29;79.28
22069;DHT22;13887;57.196;-2.100;2023-04-01T17:38:29;7.31;79.36
22069;DHT22;13887;57.196;-2.100;2023-04-01T17:41:14;7.29;79.30
22069;DHT22;13887;57.196;-2.100;2023-04-01T17:43:53;7.28;79.37
22069;DHT22;13887;57.196;-2.100;2023-04-01T18:02:50;7.31;78.69
22069;DHT22;13887;57.196;-2.100;2023-04-01T18:05:26;7.32;78.81
22069;DHT22;13887;57.196;-2.100;2023-04-01T18:08:16;7.32;78.85
22069;DHT22;13887;57.196;-2.100;2023-04-01T18:16:26;7.32;78.79
22069;DHT22;13887;57.196;-2.100;2023-04-01T18:22:10;7.32;78.79
22069;DHT22;13887;57.196;-2.100;2023-04-01T18:24:45;7.31;78.83
22069;DHT22;13887;57.196;-2.100;2023-04-01T18:27:22;7.31;78.78
22069;DHT22;13887;57.196;-2.100;2023-04-01T18:29:55;7.34;78.62
22069;DHT22;13887;57.196;-2.100;2023-04-01T18:32:36;7.31;78.75
22069;DHT22;13887;57.196;-2.100;2023-04-01T18:38:31;7.32;78.82
22069;DHT22;13887;57.196;-2.100;2023-04-01T18:41:56;7.31;78.63
22069;DHT22;13887;57.196;-2.100;2023-04-01T18:44:42;7.31;78.58
22069;DHT22;13887;57.196;-2.100;2023-04-01T18:47:41;7.31;78.69
22069;DHT22;13887;57.196;-2.100;2023-04-01T18:50:40;7.32;78.68
22069;DHT22;13887;57.196;-2.100;2023-04-01T18:53:34;7.30;78.73
22069;DHT22;13887;57.196;-2.100;2023-04-01T18:56:29;7.29;78.70
22069;DHT22;13887;57.196;-2.100;2023-04-01T18:59:08;7.31;78.64
22069;DHT22;13887;57.196;-2.100;2023-04-01T19:01:43;7.29;78.67
22069;DHT22;13887;57.196;-2.100;2023-04-01T19:04:45;7.27;78.52
22069;DHT22;13887;57.196;-2.100;2023-04-01T19:10:40;7.29;78.64
22069;DHT22;13887;57.196;-2.100;2023-04-01T19:21:29;7.32;78.48
22069;DHT22;13887;57.196;-2.100;2023-04-01T19:24:42;7.33;78.66
22069;DHT22;13887;57.196;-2.100;2023-04-01T20:00:24;7.31;78.56
22069;DHT22;13887;57.196;-2.100;2023-04-01T20:09:11;7.32;78.72
22069;DHT22;13887;57.196;-2.100;2023-04-01T20:12:01;7.32;78.72
22069;DHT22;13887;57.196;-2.100;2023-04-01T20:14:40;7.33;78.92
22069;DHT22;13887;57.196;-2.100;2023-04-01T20:20:23;7.38;78.99
22069;DHT22;13887;57.196;-2.100;2023-04-01T20:25:32;7.39;79.02
22069;DHT22;13887;57.196;-2.100;2023-04-01T20:28:09;7.38;79.04
22069;DHT22;13887;57.196;-2.100;2023-04-01T20:33:47;7.34;79.14
22069;DHT22;13887;57.196;-2.100;2023-04-01T20:39:45;7.32;79.14
22069;DHT22;13887;57.196;-2.100;2023-04-01T20:50:31;7.34;79.30
22069;DHT22;13887;57.196;-2.100;2023-04-01T20:53:12;7.34;79.30
22069;DHT22;13887;57.196;-2.100;2023-04-01T21:15:29;7.33;79.32
22069;DHT22;13887;57.196;-2.100;2023-04-01T21:26:25;7.31;79.42
22069;DHT22;13887;57.196;-2.100;2023-04-01T21:31:41;7.30;79.44
22069;DHT22;13887;57.196;-2.100;2023-04-01T21:42:44;7.29;79.19
22069;DHT22;13887;57.196;-2.100;2023-04-01T22:01:40;7.28;79.21
22069;DHT22;13887;57.196;-2.100;2023-04-01T22:07:02;7.28;79.04
22069;DHT22;13887;57.196;-2.100;2023-04-01T22:09:43;7.29;79.07
22069;DHT22;13887;57.196;-2.100;2023-04-01T22:20:35;7.30;79.21
22069;DHT22;13887;57.196;-2.100;2023-04-01T22:28:34;7.28;79.03
22069;DHT22;13887;57.196;-2.100;2023-04-01T22:31:06;7.26;79.01
22069;DHT22;13887;57.196;-2.100;2023-04-01T22:42:41;7.25;79.17
22069;DHT22;13887;57.196;-2.100;2023-04-01T22:50:40;7.24;79.22
22069;DHT22;13887;57.196;-2.100;2023-04-01T22:55:57;7.23;79.31
22069;DHT22;13887;57.196;-2.100;2023-04-01T22:58:32;7.25;79.39
22069;DHT22;13887;57.196;-2.100;2023-04-01T23:01:07;7.23;79.41
22069;DHT22;13887;57.196;-2.100;2023-04-01T23:03:41;7.25;79.40
22069;DHT22;13887;57.196;-2.100;2023-04-01T23:06:26;7.27;79.30
22069;DHT22;13887;57.196;-2.100;2023-04-01T23:11:58;7.24;79.29
22069;DHT22;13887;57.196;-2.100;2023-04-01T23:14:39;7.26;79.37
22069;DHT22;13887;57.196;-2.100;2023-04-01T23:25:39;7.23;79.27
22069;DHT22;13887;57.196;-2.100;2023-04-01T23:28:30;7.20;79.39
22069;DHT22;13887;57.196;-2.100;2023-04-01T23:31:00;7.20;79.40
22069;DHT22;13887;57.196;-2.100;2023-04-01T23:33:29;7.22;79.41
22069;DHT22;13887;57.196;-2.100;2023-04-01T23:36:10;7.19;79.46
22069;DHT22;13887;57.196;-2.100;2023-04-01T23:38:42;7.19;79.39
22069;DHT22;13887;57.196;-2.100;2023-04-01T23:41:19;7.20;79.38
22069;DHT22;13887;57.196;-2.100;2023-04-01T23:43:55;7.20;79.42
22069;DHT22;13887;57.196;-2.100;2023-04-01T23:46:23;7.19;79.54
22069;DHT22;13887;57.196;-2.100;2023-04-01T23:48:52;7.20;79.43
22069;DHT22;13887;57.196;-2.100;2023-04-01T23:51:26;7.20;79.30
22069;DHT22;13887;57.196;-2.100;2023-04-01T23:54:19;7.17;79.24
22069;DHT22;13887;57.196;-2.100;2023-04-01T23:56:55;7.17;79.43
